Time;durP1;ratioP1;P1;durP2;ratioP2;P2;SDS_P1;SDS_P2;PMS_P1;PMS_P2;Temp;Humidity;BMP_temperature;BMP_pressure;BME280_temperature;BME280_humidity;BME280_pressure;Samples;Min_cycle;Max_cycle;Signal;HPM_P1;HPM_P2
2023/08/25 00:01:24;;;;;;;1.57;1.57;;;20.60;99.90;;;;;;4963975;29;20522;-87
2023/08/25 00:03:51;;;;;;;1.73;1.63;;;;;;;;;;4949907;29;20439;-82
2023/08/25 00:06:19;;;;;;;1.70;1.60;;;;;;;;;;4944701;29;20441;-84
2023/08/25 00:08:46;;;;;;;1.40;1.40;;;20.40;99.90;;;;;;4945310;29;20489;-83
2023/08/25 00:11:13;;;;;;;1.53;1.50;;;20.10;99.90;;;;;;4954737;29;20419;-81
2023/08/25 00:13:41;;;;;;;1.10;1.10;;;20.00;99.90;;;;;;4960616;29;20442;-88
2023/08/25 00:16:09;;;;;;;1.77;1.67;;;;;;;;;;4956734;29;20460;-87
2023/08/25 00:18:37;;;;;;;1.63;1.53;;;;;;;;;;4966566;28;20472;-85
2023/08/25 00:21:04;;;;;;;1.77;1.67;;;;;;;;;;4967365;28;20448;-86
2023/08/25 00:23:32;;;;;;;0.90;0.90;;;;;;;;;;4945524;29;20481;-78
2023/08/25 00:25:59;;;;;;;1.60;1.50;;;;;;;;;;4925013;29;20467;-80
2023/08/25 00:28:26;;;;;;;2.23;2.00;;;20.40;99.90;;;;;;4960530;29;20464;-87
2023/08/25 00:30:54;;;;;;;1.30;1.20;;;;;;;;;;4946065;29;20470;-85
2023/08/25 00:33:22;;;;;;;1.30;1.30;;;;;;;;;;4927318;29;20517;-79
2023/08/25 00:35:50;;;;;;;1.20;1.10;;;;;;;;;;4948221;29;20457;-80
2023/08/25 00:38:17;;;;;;;2.80;2.60;;;;;;;;;;4938642;29;20463;-80
2023/08/25 00:40:45;;;;;;;1.50;1.40;;;;;;;;;;4972507;28;20449;-85
2023/08/25 00:43:12;;;;;;;1.40;1.30;;;;;;;;;;4928278;29;20414;-85
2023/08/25 00:45:41;;;;;;;1.00;1.00;;;19.80;99.90;;;;;;4944712;29;20542;-83
2023/08/25 00:48:10;;;;;;;1.63;1.53;;;20.00;99.90;;;;;;4945953;29;20553;-85
2023/08/25 00:50:39;;;;;;;1.53;1.43;;;20.00;99.90;;;;;;4941644;29;20581;-83
2023/08/25 00:53:07;;;;;;;1.80;1.70;;;20.10;99.90;;;;;;4965780;29;20459;-84
2023/08/25 00:55:35;;;;;;;1.93;1.83;;;20.00;99.90;;;;;;4908755;29;20482;-86
2023/08/25 00:58:05;;;;;;;1.40;1.30;;;20.00;99.90;;;;;;4941718;29;20468;-83
2023/08/25 01:00:34;;;;;;;3.33;3.23;;;19.90;99.90;;;;;;4945184;29;20409;-80
2023/08/25 01:03:01;;;;;;;2.03;1.93;;;;;;;;;;4934359;29;20422;-82
2023/08/25 01:05:29;;;;;;;1.87;1.77;;;;;;;;;;4945292;29;20443;-85
2023/08/25 01:07:57;;;;;;;1.00;1.00;;;;;;;;;;4963326;28;20484;-85
2023/08/25 01:10:31;;;;;;;1.00;1.00;;;19.60;99.90;;;;;;4962919;29;20438;-84
2023/08/25 01:13:14;;;;;;;1.30;1.30;;;19.70;99.90;;;;;;4936061;29;20452;-82
2023/08/25 01:15:48;;;;;;;2.10;2.00;;;19.70;99.90;;;;;;4967924;29;20438;-87
2023/08/25 01:18:20;;;;;;;1.83;1.73;;;19.80;99.90;;;;;;4952897;29;20474;-86
2023/08/25 01:20:48;;;;;;;2.20;2.10;;;;;;;;;;4948611;29;20428;-86
2023/08/25 01:23:26;;;;;;;1.83;1.73;;;19.80;99.90;;;;;;4948913;29;20432;-84
2023/08/25 01:25:54;;;;;;;1.63;1.53;;;;;;;;;;4949366;29;20475;-85
2023/08/25 01:28:21;;;;;;;1.87;1.77;;;;;;;;;;4938131;29;20803;-84
2023/08/25 01:30:54;;;;;;;1.53;1.47;;;;;;;;;;4935370;29;20654;-84
2023/08/25 01:33:23;;;;;;;1.57;1.47;;;19.80;99.90;;;;;;4951284;29;20739;-82
2023/08/25 01:36:31;;;;;;;1.40;1.40;;;19.90;99.90;;;;;;4949580;29;20466;-86
2023/08/25 01:38:58;;;;;;;1.40;1.20;;;;;;;;;;4927025;29;20541;-86
2023/08/25 01:41:35;;;;;;;1.00;1.00;;;19.90;99.90;;;;;;4932235;29;20465;-85
2023/08/25 01:44:04;;;;;;;1.53;1.43;;;19.70;99.90;;;;;;4951603;29;20464;-85
2023/08/25 01:46:34;;;;;;;1.20;1.17;;;19.70;99.90;;;;;;4954743;29;20445;-80
2023/08/25 01:49:03;;;;;;;1.27;1.27;;;19.70;99.90;;;;;;4955899;29;20496;-85
2023/08/25 01:51:32;;;;;;;1.53;1.40;;;19.70;99.90;;;;;;4948806;29;20472;-86
2023/08/25 01:53:59;;;;;;;1.10;1.10;;;;;;;;;;4954614;29;20469;-80
2023/08/25 01:56:26;;;;;;;1.10;1.10;;;19.80;99.90;;;;;;4952043;29;20540;-88
2023/08/25 01:58:54;;;;;;;1.37;1.27;;;;;;;;;;4969481;29;20472;-87
2023/08/25 02:01:22;;;;;;;0.80;0.80;;;;;;;;;;4957837;29;20512;-84
2023/08/25 02:03:49;;;;;;;1.57;1.50;;;;;;;;;;4947018;29;20440;-85
2023/08/25 02:06:17;;;;;;;3.13;1.33;;;;;;;;;;4963920;29;20465;-86
2023/08/25 02:08:44;;;;;;;2.33;2.20;;;19.60;99.90;;;;;;4965983;29;20512;-85
2023/08/25 02:11:11;;;;;;;1.40;1.30;;;;;;;;;;4949214;29;20444;-83
2023/08/25 02:13:39;;;;;;;3.03;2.83;;;;;;;;;;4947403;29;20748;-85
2023/08/25 02:16:07;;;;;;;1.00;1.00;;;;;;;;;;4960895;28;20465;-86
2023/08/25 02:18:34;;;;;;;1.77;1.67;;;;;;;;;;4951651;29;20470;-88
2023/08/25 02:21:02;;;;;;;1.77;1.67;;;;;;;;;;4972631;28;20494;-85
2023/08/25 02:23:29;;;;;;;1.13;1.13;;;;;;;;;;4953833;29;20490;-85
2023/08/25 02:25:57;;;;;;;1.33;1.27;;;;;;;;;;4947167;29;20445;-83
2023/08/25 02:28:24;;;;;;;1.47;1.47;;;;;;;;;;4927384;29;20526;-80
2023/08/25 02:30:51;;;;;;;1.30;1.13;;;;;;;;;;4959434;29;20509;-85
2023/08/25 02:33:19;;;;;;;1.67;1.57;;;;;;;;;;4957138;29;20738;-84
2023/08/25 02:35:46;;;;;;;1.00;1.00;;;19.80;99.90;;;;;;4950115;29;20442;-83
2023/08/25 02:38:13;;;;;;;1.10;1.10;;;;;;;;;;4958158;29;20537;-86
2023/08/25 02:40:41;;;;;;;3.00;2.80;;;;;;;;;;4965248;29;20487;-81
2023/08/25 02:43:08;;;;;;;1.53;1.50;;;;;;;;;;4965480;29;20473;-85
2023/08/25 02:45:36;;;;;;;0.83;0.83;;;19.60;99.90;;;;;;4963498;29;20821;-89
2023/08/25 02:48:04;;;;;;;1.07;1.07;;;;;;;;;;4947085;29;20504;-84
2023/08/25 02:50:32;;;;;;;0.80;0.80;;;;;;;;;;4957029;29;20464;-87
2023/08/25 02:53:00;;;;;;;1.30;1.20;;;;;;;;;;4970674;29;20416;-87
2023/08/25 02:55:27;;;;;;;3.43;1.63;;;;;;;;;;4958790;28;20463;-88
2023/08/25 02:57:55;;;;;;;2.50;2.40;;;;;;;;;;4956546;29;20423;-87
2023/08/25 03:00:23;;;;;;;1.60;1.50;;;;;;;;;;4958118;29;20783;-87
2023/08/25 03:02:51;;;;;;;1.60;1.50;;;;;;;;;;4949161;29;20494;-86
2023/08/25 03:05:21;;;;;;;3.20;3.00;;;19.70;99.90;;;;;;4929615;29;20457;-85
2023/08/25 03:07:52;;;;;;;1.40;1.30;;;19.70;99.90;;;;;;4947447;29;20452;-89
2023/08/25 03:10:20;;;;;;;1.93;1.83;;;;;;;;;;4946688;29;20516;-87
2023/08/25 03:12:47;;;;;;;1.20;1.20;;;;;;;;;;4951096;28;20544;-87
2023/08/25 03:15:14;;;;;;;1.00;1.00;;;;;;;;;;4938661;29;20438;-86
2023/08/25 03:17:42;;;;;;;1.47;1.37;;;;;;;;;;4969015;29;20714;-83
2023/08/25 03:20:10;;;;;;;1.87;1.77;;;;;;;;;;4951337;29;20439;-83
2023/08/25 03:22:37;;;;;;;1.03;1.03;;;19.70;99.90;;;;;;4946878;29;20421;-87
2023/08/25 03:25:04;;;;;;;1.40;1.40;;;19.40;99.90;;;;;;4945883;29;20775;-85
2023/08/25 03:27:34;;;;;;;1.07;1.07;;;;;;;;;;4963087;28;20416;-82
2023/08/25 03:30:02;;;;;;;1.40;1.30;;;;;;;;;;4948513;29;20483;-90
2023/08/25 03:32:29;;;;;;;1.03;1.00;;;;;;;;;;4949323;29;20450;-85
2023/08/25 03:34:57;;;;;;;1.73;1.63;;;;;;;;;;4960611;29;20455;-87
2023/08/25 03:37:24;;;;;;;0.90;0.90;;;;;;;;;;4947160;29;20740;-87
2023/08/25 03:39:52;;;;;;;1.20;1.10;;;;;;;;;;4948466;29;20454;-85
2023/08/25 03:42:19;;;;;;;1.07;1.07;;;;;;;;;;4964362;29;20412;-90
2023/08/25 03:44:48;;;;;;;3.13;2.30;;;;;;;;;;4949493;29;20492;-88
2023/08/25 03:47:14;;;;;;;1.50;1.40;;;19.50;99.90;;;;;;4965943;29;20467;-85
2023/08/25 03:49:42;;;;;;;1.47;1.37;;;;;;;;;;4950231;29;20488;-85
2023/08/25 03:52:10;;;;;;;2.20;2.10;;;;;;;;;;4953323;28;20457;-85
2023/08/25 03:54:37;;;;;;;1.27;1.17;;;19.40;99.90;;;;;;4958683;29;20510;-86
2023/08/25 03:57:07;;;;;;;0.90;0.90;;;;;;;;;;4961356;28;20425;-85
2023/08/25 03:59:34;;;;;;;1.00;1.00;;;;;;;;;;4964039;29;20487;-80
2023/08/25 04:02:03;;;;;;;1.53;1.43;;;19.70;99.90;;;;;;4952108;29;20506;-88
2023/08/25 04:04:32;;;;;;;1.23;1.23;;;;;;;;;;4955077;29;20444;-83
2023/08/25 04:06:59;;;;;;;1.03;1.03;;;;;;;;;;4955295;29;20520;-86
2023/08/25 04:09:26;;;;;;;0.90;0.90;;;;;;;;;;4954479;28;20485;-87
2023/08/25 04:11:55;;;;;;;1.07;1.07;;;19.00;99.90;;;;;;4964799;29;20415;-88
2023/08/25 04:14:23;;;;;;;1.20;1.20;;;19.10;99.90;;;;;;4955936;29;20417;-87
2023/08/25 04:16:50;;;;;;;2.60;2.40;;;19.30;99.90;;;;;;4945365;29;20417;-87
2023/08/25 04:19:21;;;;;;;1.37;1.20;;;19.10;99.90;;;;;;4945081;29;20468;-83
2023/08/25 04:21:49;;;;;;;2.80;2.60;;;;;;;;;;4931961;29;20444;-87
2023/08/25 04:24:17;;;;;;;2.70;1.70;;;19.40;99.90;;;;;;4944164;29;20691;-84
2023/08/25 04:26:45;;;;;;;1.50;1.40;;;;;;;;;;4953270;29;20464;-87
2023/08/25 04:29:12;;;;;;;1.03;1.00;;;19.70;99.90;;;;;;4931176;29;20449;-86
2023/08/25 04:31:39;;;;;;;1.20;1.20;;;19.70;99.90;;;;;;4951283;29;20512;-90
2023/08/25 04:34:06;;;;;;;1.10;1.10;;;;;;;;;;4947243;29;20446;-87
2023/08/25 04:36:36;;;;;;;1.20;1.20;;;;;;;;;;4947809;29;20420;-87
2023/08/25 04:39:04;;;;;;;3.20;3.00;;;;;;;;;;4959621;29;20777;-85
2023/08/25 04:41:32;;;;;;;1.60;1.50;;;19.70;99.90;;;;;;4945065;29;20763;-87
2023/08/25 04:43:59;;;;;;;1.03;1.03;;;19.60;99.90;;;;;;4952278;29;20437;-87
2023/08/25 04:46:28;;;;;;;1.27;1.17;;;19.70;99.90;;;;;;4933437;29;20490;-86
2023/08/25 04:48:55;;;;;;;0.80;0.80;;;;;;;;;;4950351;29;20463;-88
2023/08/25 04:51:23;;;;;;;0.93;0.93;;;;;;;;;;4964198;28;20462;-84
2023/08/25 04:53:50;;;;;;;0.93;0.90;;;19.60;99.90;;;;;;4970613;29;20448;-85
2023/08/25 04:56:18;;;;;;;1.93;1.83;;;;;;;;;;4967060;29;20416;-85
2023/08/25 04:58:45;;;;;;;2.70;2.60;;;19.90;99.90;;;;;;4953039;29;20427;-85
2023/08/25 05:01:13;;;;;;;2.03;1.90;;;;;;;;;;4935059;29;20481;-86
2023/08/25 05:03:42;;;;;;;2.23;2.03;;;20.20;99.90;;;;;;4945375;29;20569;-86
2023/08/25 05:06:09;;;;;;;1.73;1.63;;;20.30;99.90;;;;;;4944137;29;20484;-87
2023/08/25 05:08:36;;;;;;;2.50;1.30;;;20.10;99.90;;;;;;4944663;29;20460;-87
2023/08/25 05:11:04;;;;;;;0.90;0.90;;;;;;;;;;4961366;29;20473;-86
2023/08/25 05:13:32;;;;;;;1.20;1.10;;;;;;;;;;4947949;29;20669;-87
2023/08/25 05:15:59;;;;;;;3.60;1.40;;;;;;;;;;4944682;29;20495;-86
2023/08/25 05:18:27;;;;;;;1.23;1.13;;;;;;;;;;4952676;29;20498;-86
2023/08/25 05:20:59;;;;;;;1.13;1.10;;;20.30;99.90;;;;;;4944519;29;20635;-84
2023/08/25 05:23:27;;;;;;;1.17;1.17;;;20.60;99.90;;;;;;4944630;29;20646;-85
2023/08/25 05:25:55;;;;;;;1.47;1.40;;;20.80;99.90;;;;;;4952331;29;20417;-84
2023/08/25 05:28:23;;;;;;;1.83;1.73;;;20.70;99.90;;;;;;4944350;29;20492;-86
2023/08/25 05:30:54;;;;;;;1.37;1.37;;;;;;;;;;4946877;29;20548;-86
2023/08/25 05:33:22;;;;;;;1.10;1.10;;;20.90;99.90;;;;;;4963435;29;20422;-85
2023/08/25 05:35:50;;;;;;;1.87;1.77;;;21.20;99.90;;;;;;4945163;29;20509;-85
2023/08/25 05:38:17;;;;;;;1.83;1.67;;;22.80;99.90;;;;;;4944219;29;20450;-85
2023/08/25 05:40:44;;;;;;;1.40;1.40;;;21.40;99.90;;;;;;4962217;29;20526;-86
2023/08/25 05:43:12;;;;;;;3.70;1.53;;;;;;;;;;4954679;29;20680;-85
2023/08/25 05:45:38;;;;;;;2.63;2.43;;;21.60;99.90;;;;;;4932310;29;20526;-84
2023/08/25 05:48:06;;;;;;;1.40;1.30;;;22.10;99.90;;;;;;4927517;29;20445;-83
2023/08/25 05:50:35;;;;;;;1.60;1.50;;;21.80;99.90;;;;;;4951312;28;20455;-86
2023/08/25 05:53:02;;;;;;;2.53;2.33;;;21.70;99.90;;;;;;4939343;29;20558;-86
2023/08/25 05:55:30;;;;;;;1.47;1.37;;;21.60;99.90;;;;;;4947075;29;20413;-85
2023/08/25 05:57:57;;;;;;;1.77;1.67;;;21.80;99.90;;;;;;4949692;29;20445;-88
2023/08/25 06:00:24;;;;;;;1.20;1.10;;;22.20;99.90;;;;;;4952092;29;20508;-85
2023/08/25 06:02:51;;;;;;;2.17;2.07;;;22.10;99.90;;;;;;4952331;29;20445;-87
2023/08/25 06:05:18;;;;;;;1.00;1.00;;;23.60;99.90;;;;;;4953502;29;20455;-82
2023/08/25 06:07:44;;;;;;;1.83;1.70;;;22.70;99.90;;;;;;4966450;29;20572;-86
2023/08/25 06:10:12;;;;;;;1.00;1.00;;;24.30;99.90;;;;;;4960382;29;20498;-84
2023/08/25 06:12:39;;;;;;;1.60;1.50;;;23.00;99.90;;;;;;4959663;28;20405;-86
2023/08/25 06:15:06;;;;;;;1.20;1.20;;;24.60;99.90;;;;;;4948731;28;20595;-85
2023/08/25 06:17:34;;;;;;;1.47;1.37;;;23.40;99.90;;;;;;4946982;29;20842;-84
2023/08/25 06:20:03;;;;;;;1.83;1.73;;;23.60;99.90;;;;;;4947008;29;20815;-84
2023/08/25 06:22:30;;;;;;;1.97;1.87;;;23.70;99.90;;;;;;4954620;29;20451;-84
2023/08/25 06:24:57;;;;;;;1.70;1.60;;;24.50;99.90;;;;;;4962490;29;20473;-83
2023/08/25 06:27:24;;;;;;;1.60;1.50;;;24.00;99.90;;;;;;4946887;29;20509;-84
2023/08/25 06:29:52;;;;;;;1.70;1.60;;;23.90;99.90;;;;;;4939336;29;20479;-84
2023/08/25 06:32:19;;;;;;;1.60;1.50;;;27.10;99.90;;;;;;4965426;29;20431;-85
2023/08/25 06:34:48;;;;;;;2.97;2.77;;;24.80;99.90;;;;;;4948632;29;20442;-84
2023/08/25 06:37:16;;;;;;;1.57;1.47;;;26.30;99.90;;;;;;4953193;29;20424;-85
2023/08/25 06:39:45;;;;;;;1.37;1.30;;;25.10;99.90;;;;;;4945164;29;20479;-85
2023/08/25 06:42:13;;;;;;;2.17;2.07;;;26.40;99.90;;;;;;4939669;29;20525;-85
2023/08/25 06:44:40;;;;;;;2.00;1.90;;;25.60;99.90;;;;;;4949405;29;20450;-84
2023/08/25 06:47:07;;;;;;;2.27;2.17;;;25.80;99.90;;;;;;4953778;29;20507;-85
2023/08/25 06:49:34;;;;;;;2.27;2.17;;;26.30;99.90;;;;;;4947124;29;20536;-83
2023/08/25 06:52:01;;;;;;;1.33;1.30;;;26.50;99.90;;;;;;4948016;29;20803;-84
2023/08/25 06:54:28;;;;;;;1.50;1.40;;;26.70;99.90;;;;;;4946997;29;20735;-85
2023/08/25 06:56:55;;;;;;;1.23;1.23;;;26.70;99.90;;;;;;4928392;29;20470;-84
2023/08/25 06:59:22;;;;;;;1.27;1.27;;;27.00;99.90;;;;;;4942989;29;20465;-84
2023/08/25 07:01:50;;;;;;;2.07;1.93;;;28.60;99.90;;;;;;4948731;29;20476;-87
2023/08/25 07:04:17;;;;;;;2.00;1.80;;;27.10;99.90;;;;;;4945996;29;20442;-89
2023/08/25 07:06:46;;;;;;;2.00;1.90;;;28.30;99.00;;;;;;4954487;29;20448;-85
2023/08/25 07:09:13;;;;;;;1.50;1.40;;;28.10;98.20;;;;;;4934888;29;20477;-86
2023/08/25 07:11:42;;;;;;;2.03;1.93;;;28.60;97.20;;;;;;4951570;29;20448;-87
2023/08/25 07:14:09;;;;;;;1.90;1.80;;;29.00;95.30;;;;;;4952883;29;20500;-85
2023/08/25 07:16:36;;;;;;;1.67;1.57;;;30.40;95.50;;;;;;4950700;29;20496;-87
2023/08/25 07:19:03;;;;;;;1.43;1.33;;;30.90;93.20;;;;;;4955910;29;20456;-84
2023/08/25 07:21:30;;;;;;;1.93;1.83;;;30.50;92.30;;;;;;4959552;28;20505;-87
2023/08/25 07:23:57;;;;;;;1.20;1.20;;;31.20;90.20;;;;;;4970417;28;20492;-86
2023/08/25 07:26:25;;;;;;;1.37;1.37;;;31.60;87.30;;;;;;4960174;29;20520;-87
2023/08/25 07:28:53;;;;;;;1.67;1.57;;;32.20;83.80;;;;;;4966829;29;20437;-84
2023/08/25 07:31:20;;;;;;;1.93;1.83;;;32.40;79.10;;;;;;4955850;29;20478;-85
2023/08/25 07:33:47;;;;;;;2.70;2.60;;;32.30;78.70;;;;;;4958889;29;20454;-87
2023/08/25 07:36:14;;;;;;;1.13;1.13;;;33.30;79.00;;;;;;4955531;29;20513;-85
2023/08/25 07:38:41;;;;;;;1.60;1.50;;;32.70;75.50;;;;;;4958319;28;20442;-85
2023/08/25 07:41:09;;;;;;;1.73;1.63;;;32.70;77.90;;;;;;4967224;29;20486;-88
2023/08/25 07:43:36;;;;;;;1.60;1.50;;;32.50;74.10;;;;;;4952887;29;20440;-87
2023/08/25 07:46:04;;;;;;;2.97;2.77;;;32.40;74.50;;;;;;4946568;29;20697;-86
2023/08/25 07:48:30;;;;;;;1.70;1.60;;;33.60;76.20;;;;;;4952224;29;20814;-87
2023/08/25 07:50:58;;;;;;;1.30;1.30;;;33.40;73.60;;;;;;4948037;29;20494;-87
2023/08/25 07:53:25;;;;;;;1.97;1.87;;;33.80;73.40;;;;;;4960514;29;20727;-88
2023/08/25 07:55:52;;;;;;;1.87;1.77;;;34.80;68.00;;;;;;4959102;29;20506;-87
2023/08/25 07:58:20;;;;;;;2.53;2.43;;;34.60;66.70;;;;;;4960556;29;20530;-86
2023/08/25 08:00:49;;;;;;;2.00;1.90;;;35.70;66.00;;;;;;4931935;29;20444;-88
2023/08/25 08:03:17;;;;;;;2.10;2.00;;;35.40;61.90;;;;;;4957892;29;20446;-87
2023/08/25 08:05:44;;;;;;;1.67;1.67;;;35.50;61.50;;;;;;4952858;29;20440;-89
2023/08/25 08:08:11;;;;;;;1.70;1.60;;;36.10;59.70;;;;;;4932269;29;20439;-86
2023/08/25 08:10:39;;;;;;;3.50;3.30;;;36.00;60.00;;;;;;4964742;29;20467;-86
2023/08/25 08:13:06;;;;;;;2.87;2.60;;;36.40;59.40;;;;;;4949824;29;20622;-89
2023/08/25 08:15:33;;;;;;;2.00;1.90;;;36.30;57.00;;;;;;4940272;29;20534;-89
2023/08/25 08:18:00;;;;;;;2.20;2.10;;;36.40;56.80;;;;;;5149082;23;20561;-88
2023/08/25 08:20:27;;;;;;;1.67;1.57;;;36.30;57.60;;;;;;5016416;28;20770;-87
2023/08/25 08:22:54;;;;;;;1.97;1.87;;;36.20;58.30;;;;;;5006738;28;20750;-87
2023/08/25 08:25:21;;;;;;;3.07;2.87;;;36.30;57.10;;;;;;5023917;28;20513;-87
2023/08/25 08:27:49;;;;;;;2.07;1.97;;;36.60;56.40;;;;;;5005947;28;20474;-89
2023/08/25 08:30:16;;;;;;;2.47;2.37;;;36.60;56.60;;;;;;5025914;28;20523;-89
2023/08/25 08:32:43;;;;;;;2.23;2.13;;;36.50;56.00;;;;;;5019373;28;20448;-87
2023/08/25 08:35:10;;;;;;;2.20;2.10;;;36.60;54.70;;;;;;5300602;23;20504;-87
2023/08/25 08:37:39;;;;;;;1.90;1.80;;;36.70;54.10;;;;;;4973684;28;20521;-88
2023/08/25 08:40:08;;;;;;;2.07;1.97;;;36.60;53.20;;;;;;4977894;28;20445;-90
2023/08/25 08:42:37;;;;;;;1.60;1.60;;;35.60;51.60;;;;;;4986423;28;20447;-88
2023/08/25 08:45:07;;;;;;;2.40;2.30;;;36.90;52.20;;;;;;4968916;28;20450;-87
2023/08/25 08:47:35;;;;;;;2.20;2.10;;;37.10;51.70;;;;;;4974495;28;20760;-91
2023/08/25 08:50:06;;;;;;;2.90;2.33;;;36.70;51.90;;;;;;5469175;23;20465;-88
2023/08/25 08:52:33;;;;;;;1.57;1.57;;;36.80;52.40;;;;;;4964779;29;20446;-90
2023/08/25 08:55:00;;;;;;;1.70;1.70;;;37.50;50.90;;;;;;4966071;29;20457;-91
2023/08/25 08:57:28;;;;;;;2.37;2.27;;;37.10;49.70;;;;;;4960566;28;20522;-87
2023/08/25 08:59:58;;;;;;;1.67;1.67;;;37.00;47.60;;;;;;4983320;28;20451;-86
2023/08/25 09:05:02;;;;;;;1.90;1.80;;;36.60;49.70;;;;;;5026678;23;20528;-88
2023/08/25 09:10:11;;;;;;;1.67;1.67;;;37.40;46.50;;;;;;5141303;23;20575;-87
2023/08/25 09:15:26;;;;;;;2.60;2.50;;;36.80;46.30;;;;;;5081820;23;20494;-93
2023/08/25 09:18:01;;;;;;;1.80;1.70;;;37.70;49.00;;;;;;4969330;29;20450;-88
2023/08/25 09:20:38;;;;;;;2.07;1.97;;;37.40;48.50;;;;;;4972319;29;20459;-84
2023/08/25 09:23:08;;;;;;;2.07;1.97;;;37.90;48.80;;;;;;5014527;23;20502;-87
2023/08/25 09:25:40;;;;;;;2.10;2.00;;;37.60;47.70;;;;;;4968242;28;21006;-87
2023/08/25 09:28:07;;;;;;;2.17;2.07;;;37.20;48.40;;;;;;4953871;29;20501;-90
2023/08/25 09:30:42;;;;;;;1.70;1.60;;;36.30;49.20;;;;;;5026960;23;20572;-85
2023/08/25 09:33:13;;;;;;;1.40;1.40;;;36.30;50.50;;;;;;4981906;28;20434;-87
2023/08/25 09:35:42;;;;;;;1.37;1.30;;;35.60;52.80;;;;;;4969701;29;20437;-87
2023/08/25 09:38:21;;;;;;;2.07;1.97;;;35.60;53.80;;;;;;4981813;28;20647;-90
2023/08/25 09:40:49;;;;;;;2.00;1.90;;;;;;;;;;5114088;23;20477;-86
2023/08/25 09:43:16;;;;;;;1.73;1.63;;;34.90;51.80;;;;;;4984058;28;20686;-86
2023/08/25 09:45:43;;;;;;;1.27;1.20;;;34.60;55.40;;;;;;4975852;28;20445;-88
2023/08/25 09:48:12;;;;;;;1.13;1.13;;;34.40;53.80;;;;;;4973052;29;20481;-84
2023/08/25 09:50:42;;;;;;;1.33;1.23;;;34.10;56.20;;;;;;5086930;23;20478;-85
2023/08/25 09:56:02;;;;;;;1.50;1.40;;;34.20;55.80;;;;;;5211934;23;20579;-88
2023/08/25 10:03:47;;;;;;;1.70;1.60;;;;;;;;;;5280642;23;20473;-87
2023/08/25 10:06:15;;;;;;;1.77;1.67;;;33.40;56.20;;;;;;5360625;23;20473;-86
2023/08/25 10:08:42;;;;;;;1.97;1.87;;;32.90;56.80;;;;;;4969104;28;20444;-86
2023/08/25 10:11:11;;;;;;;1.70;1.60;;;33.50;57.20;;;;;;5244218;23;20491;-88
2023/08/25 10:16:16;;;;;;;1.00;1.00;;;;;;;;;;5274169;23;20514;-85
2023/08/25 10:18:44;;;;;;;2.03;1.93;;;33.00;57.90;;;;;;5395972;23;21699;-89
2023/08/25 10:21:14;;;;;;;1.97;1.87;;;33.20;57.20;;;;;;4963971;29;20445;-87
2023/08/25 10:26:16;;;;;;;1.67;1.43;;;33.50;56.90;;;;;;4954250;28;20469;-86
2023/08/25 10:28:45;;;;;;;1.80;1.50;;;33.10;58.50;;;;;;5185614;23;20509;-84
2023/08/25 10:31:13;;;;;;;1.50;1.40;;;33.30;57.80;;;;;;4991546;28;20539;-90
2023/08/25 10:36:21;;;;;;;1.33;1.33;;;33.50;56.20;;;;;;5209339;23;20491;-85
2023/08/25 10:39:00;;;;;;;2.80;1.63;;;33.20;57.70;;;;;;4977349;28;20502;-87
2023/08/25 10:41:28;;;;;;;1.30;1.30;;;33.70;56.50;;;;;;4951693;28;20482;-84
2023/08/25 10:43:55;;;;;;;1.57;1.47;;;;;;;;;;4982169;28;20442;-87
2023/08/25 10:46:23;;;;;;;1.40;1.40;;;33.30;56.00;;;;;;4952179;29;20514;-90
2023/08/25 10:49:08;;;;;;;1.07;1.07;;;33.20;58.20;;;;;;4971963;29;20442;-88
2023/08/25 10:51:38;;;;;;;1.50;1.50;;;33.10;57.70;;;;;;5155752;23;20564;-83
2023/08/25 10:54:16;;;;;;;1.73;1.63;;;32.90;58.10;;;;;;5056342;23;20511;-88
2023/08/25 10:56:43;;;;;;;1.80;1.70;;;;;;;;;;5450676;23;20509;-87
2023/08/25 10:59:13;;;;;;;1.80;1.70;;;;;;;;;;4966468;28;20456;-86
2023/08/25 11:01:52;;;;;;;1.60;1.50;;;33.10;60.30;;;;;;5353412;23;20456;-86
2023/08/25 11:04:27;;;;;;;1.67;1.60;;;33.00;59.10;;;;;;5121267;23;20628;-87
2023/08/25 11:06:56;;;;;;;1.60;1.50;;;33.00;59.30;;;;;;5206568;23;20556;-87
2023/08/25 11:11:59;;;;;;;5.73;2.27;;;32.90;58.70;;;;;;5499773;23;20496;-86
2023/08/25 11:17:05;;;;;;;1.63;1.53;;;32.90;59.50;;;;;;5401446;23;20500;-88
2023/08/25 11:19:33;;;;;;;1.10;1.10;;;;;;;;;;4968093;29;20737;-85
2023/08/25 11:22:05;;;;;;;2.23;2.13;;;33.40;58.30;;;;;;5160456;23;20494;-89
2023/08/25 11:24:33;;;;;;;1.17;1.17;;;33.20;59.30;;;;;;5009036;28;20440;-88
2023/08/25 11:29:37;;;;;;;1.43;1.43;;;33.20;58.80;;;;;;5027869;23;20507;-85
2023/08/25 11:32:11;;;;;;;1.73;1.63;;;33.00;58.50;;;;;;4976922;28;20539;-87
2023/08/25 11:34:38;;;;;;;2.27;2.07;;;;;;;;;;5004684;23;20520;-84
2023/08/25 11:37:06;;;;;;;1.10;1.10;;;33.00;62.00;;;;;;5295982;23;20535;-87
2023/08/25 11:39:44;;;;;;;1.20;1.20;;;30.90;58.40;;;;;;4953509;28;20513;-87
2023/08/25 11:42:12;;;;;;;1.33;1.30;;;32.90;59.30;;;;;;4975931;28;20434;-85
2023/08/25 11:44:40;;;;;;;1.50;1.40;;;32.80;59.40;;;;;;4972241;29;20404;-84
2023/08/25 11:47:09;;;;;;;1.17;1.17;;;;;;;;;;4968102;28;20444;-85
2023/08/25 11:49:36;;;;;;;1.30;1.30;;;33.00;62.30;;;;;;5267102;23;20472;-86
2023/08/25 11:52:06;;;;;;;1.00;1.00;;;33.00;59.90;;;;;;4980156;28;20496;-87
2023/08/25 11:54:49;;;;;;;1.10;1.10;;;33.00;61.70;;;;;;4971788;28;20468;-87
2023/08/25 11:57:18;;;;;;;1.13;1.13;;;32.80;63.10;;;;;;5065282;23;20491;-85
2023/08/25 11:59:46;;;;;;;1.20;1.20;;;32.80;63.90;;;;;;5221647;23;20924;-90
2023/08/25 12:02:18;;;;;;;1.47;1.00;;;32.70;60.90;;;;;;4970664;29;20441;-91
2023/08/25 12:04:55;;;;;;;1.87;1.77;;;32.90;60.70;;;;;;4951551;29;20460;-87
2023/08/25 12:07:28;;;;;;;1.17;1.17;;;33.00;61.00;;;;;;4982346;28;20497;-87
2023/08/25 12:10:00;;;;;;;2.13;1.97;;;32.60;63.70;;;;;;4991131;28;20472;-88
2023/08/25 12:12:32;;;;;;;1.40;1.30;;;33.00;59.70;;;;;;4968202;28;20473;-87
2023/08/25 12:15:06;;;;;;;1.73;1.67;;;32.70;60.60;;;;;;4975125;28;20435;-89
2023/08/25 12:17:35;;;;;;;1.33;1.33;;;32.80;59.50;;;;;;4975212;28;20500;-85
2023/08/25 12:20:15;;;;;;;2.03;1.93;;;32.50;59.70;;;;;;4968713;29;20437;-83
2023/08/25 12:22:54;;;;;;;1.00;1.00;;;32.40;59.50;;;;;;4962765;28;20545;-85
2023/08/25 12:25:24;;;;;;;1.27;1.27;;;;;;;;;;4974225;28;20474;-88
2023/08/25 12:27:51;;;;;;;1.17;1.17;;;32.30;59.60;;;;;;4985621;28;20470;-88
2023/08/25 12:30:20;;;;;;;1.10;1.10;;;;;;;;;;4952090;29;20468;-88
2023/08/25 12:32:48;;;;;;;1.10;1.10;;;;;;;;;;4972924;28;20488;-86
2023/08/25 12:35:15;;;;;;;1.20;1.20;;;;;;;;;;4977672;28;20452;-88
2023/08/25 12:37:44;;;;;;;2.80;2.60;;;32.50;61.40;;;;;;4967630;29;20466;-87
2023/08/25 12:40:12;;;;;;;1.10;1.10;;;;;;;;;;4952506;28;20618;-85
2023/08/25 12:42:38;;;;;;;1.00;1.00;;;32.50;62.80;;;;;;4978840;28;20445;-88
2023/08/25 12:45:06;;;;;;;1.20;1.20;;;32.50;61.70;;;;;;4986213;28;20441;-86
2023/08/25 12:47:34;;;;;;;1.30;1.30;;;;;;;;;;4974567;28;20682;-90
2023/08/25 12:50:01;;;;;;;1.30;1.30;;;;;;;;;;4966103;29;20449;-87
2023/08/25 12:52:31;;;;;;;1.70;1.60;;;32.20;65.80;;;;;;4965307;29;20643;-86
2023/08/25 12:54:59;;;;;;;1.20;1.20;;;;;;;;;;4966972;29;20445;-88
2023/08/25 12:57:45;;;;;;;1.80;1.70;;;32.00;65.50;;;;;;4953885;29;20437;-89
2023/08/25 13:00:13;;;;;;;2.10;2.00;;;32.40;64.50;;;;;;4971727;28;20630;-87
2023/08/25 13:02:40;;;;;;;1.73;1.63;;;;;;;;;;4958994;29;20445;-90
2023/08/25 13:05:11;;;;;;;1.83;1.73;;;32.50;64.30;;;;;;4964844;29;20437;-87
2023/08/25 13:07:39;;;;;;;1.30;1.30;;;31.70;61.20;;;;;;4966239;29;20437;-91
2023/08/25 13:10:07;;;;;;;2.07;1.97;;;32.70;64.00;;;;;;4975407;28;20446;-88
2023/08/25 13:12:34;;;;;;;1.33;1.33;;;32.50;65.70;;;;;;4971452;29;20496;-87
2023/08/25 13:15:03;;;;;;;2.07;1.97;;;32.50;61.80;;;;;;4969233;29;20470;-88
2023/08/25 13:17:30;;;;;;;2.87;2.77;;;32.50;60.70;;;;;;4965746;29;20645;-88
2023/08/25 13:19:57;;;;;;;2.00;1.90;;;32.50;64.10;;;;;;4966470;29;20442;-89
2023/08/25 13:22:24;;;;;;;1.63;1.53;;;32.90;62.50;;;;;;4974984;28;20495;-85
2023/08/25 13:24:52;;;;;;;1.20;1.20;;;;;;;;;;4968389;29;20476;-86
2023/08/25 13:27:19;;;;;;;1.20;1.20;;;32.70;62.30;;;;;;4983194;28;20437;-86
2023/08/25 13:29:46;;;;;;;1.87;1.77;;;;;;;;;;4969665;28;20565;-89
2023/08/25 13:32:13;;;;;;;1.30;1.30;;;32.30;60.20;;;;;;4977092;28;20480;-83
2023/08/25 13:34:40;;;;;;;1.10;1.10;;;32.90;64.00;;;;;;4951916;29;20441;-89
2023/08/25 13:37:07;;;;;;;2.87;2.67;;;32.40;63.30;;;;;;5056334;23;20546;-86
2023/08/25 13:39:38;;;;;;;1.20;1.20;;;32.70;64.80;;;;;;5003639;28;20670;-84
2023/08/25 13:42:08;;;;;;;1.30;1.30;;;32.60;63.30;;;;;;5019311;28;20659;-87
2023/08/25 13:44:39;;;;;;;1.30;1.30;;;;;;;;;;5006124;28;20441;-85
2023/08/25 13:47:09;;;;;;;1.10;1.10;;;;;;;;;;5007496;28;20690;-87
2023/08/25 13:49:37;;;;;;;1.20;1.20;;;;;;;;;;5011814;28;20463;-87
2023/08/25 13:52:05;;;;;;;1.80;1.70;;;;;;;;;;5003325;28;20552;-88
2023/08/25 13:54:32;;;;;;;1.17;1.17;;;32.10;64.70;;;;;;5012519;28;20444;-87
2023/08/25 13:57:00;;;;;;;2.73;2.63;;;32.40;61.90;;;;;;5007968;28;20446;-87
2023/08/25 13:59:27;;;;;;;3.33;3.10;;;31.60;63.40;;;;;;4990273;28;20451;-86